Forside
METAR-TAF:

METAR-TAF

Lufthavne :

Lagos, Nigeria

Breddekreds: 06-35N, længdekreds: 003-20E, højde: 40 m

Aktuelle vejr

Denne rapport blev lavet for 1 time og 11 minutter siden, kl. 11:00 UTC
Vind 3 kt fra vest
Temperatur 33°C
Fugtighed 67%
Tryk 1014 hPa
Sigt: 8000 m
Brudte skyer i en højde af 1400 ft

METAR: DNMM 221100Z 26003KT 8000 BKN014 33/26 Q1014 NOSIG

Tid: 13:11 (12:11 UTC)

Vejrudsigter

Denne rapport blev lavet for 2 timer og 16 minutter siden, kl. 09:55 UTC
Foreløbig gælder fra 22 på 12 UTC til 23 på 18 UTC
Vind 10 kt fra syd
Sigt 10 km eller mere
Brudte skyer i en højde af 1300 ft
Midlertidig
fra 22 på 13 UTC til 22 på 19 UTC
Brudte skyer i en højde af 1300 ft
Nogle få skyer i en højde af 2000 ft, Cumulonimbus.
Sandsynlighed 30%
fra 22 på 15 UTC til 22 på 19 UTC
tordenbyger
ændring
fra 22 på 20 UTC til 22 på 23 UTC
Vind 2 kt fra varierende retninger
Nogle få skyer i en højde af 1100 ft

TAF: DNMM 220955Z 2212/2318 19010KT 9999 BKN013 TEMPO 2213/2219 BKN013 FEW020CB PROB30 2215/2219 TS BECMG 2220/2223 VRB02KT FEW011

Vejrobservationer og prognoser fra mere end 4000 lufthavne (METAR og TAF).

De gule og røde prikker repræsenterer de meteorologiske stationer.

Flyt musen over at se navnet på stationen.

Så klik over at se vejr observationer og prognoser.

At skifte det kort: Klik på de grønne knapper med et sort kors for at zoome ind; på den grønne knap med en bindestreg for at zoome ud; eller på de grønne pile for tilstødende kort.


METAR-TAF: